createdAt,value
2022-11-27T00:00:55.839Z,1015.3
2022-11-27T00:11:02.598Z,1015.1
2022-11-27T00:21:09.308Z,1015
2022-11-27T00:31:16.123Z,1014.9
2022-11-27T00:41:22.741Z,1014.9
2022-11-27T00:51:29.508Z,1014.7
2022-11-27T01:01:36.284Z,1014.8
2022-11-27T01:11:42.953Z,1014.8
2022-11-27T01:21:49.644Z,1014.8
2022-11-27T01:31:56.407Z,1014.8
2022-11-27T01:42:03.102Z,1014.7
2022-11-27T01:52:09.855Z,1014.6
2022-11-27T02:02:16.592Z,1014.5
2022-11-27T02:12:23.309Z,1014.4
2022-11-27T02:22:30.022Z,1014.1
2022-11-27T02:32:36.747Z,1014.1
2022-11-27T02:42:43.587Z,1014.2
2022-11-27T02:52:50.226Z,1014.1
2022-11-27T03:02:57.101Z,1013.8
2022-11-27T03:13:03.632Z,1013.7
2022-11-27T03:23:10.474Z,1013.5
2022-11-27T03:33:17.104Z,1013.4
2022-11-27T03:43:23.937Z,1013.6
2022-11-27T03:53:30.530Z,1013.6
2022-11-27T04:03:42.922Z,1013.4
2022-11-27T04:13:44.197Z,1013.3
2022-11-27T04:23:50.700Z,1013.2
2022-11-27T04:33:57.541Z,1013.1
2022-11-27T04:44:04.169Z,1012.6
2022-11-27T04:54:11.005Z,1012.5
2022-11-27T05:04:17.621Z,1012.5
2022-11-27T05:14:24.462Z,1012.5
2022-11-27T05:24:31.061Z,1012.5
2022-11-27T05:34:38.203Z,1012.3
2022-11-27T05:44:44.521Z,1012.3
2022-11-27T05:54:51.366Z,1012.2
2022-11-27T06:04:57.996Z,1012
2022-11-27T06:15:04.819Z,1012.1
2022-11-27T06:25:12.659Z,1011.9
2022-11-27T06:35:19.496Z,1011.8
2022-11-27T06:45:26.113Z,1011.8
2022-11-27T06:55:32.953Z,1011.5
2022-11-27T07:05:40.778Z,1011.5
2022-11-27T07:15:47.636Z,1011.4
2022-11-27T07:25:54.232Z,1011.2
2022-11-27T07:36:01.101Z,1011.2
2022-11-27T07:46:07.750Z,1011.1
2022-11-27T07:56:14.592Z,1011
2022-11-27T08:06:21.151Z,1010.8
2022-11-27T08:16:28.051Z,1010.8
2022-11-27T08:26:34.608Z,1010.7
2022-11-27T08:36:41.483Z,1010.8
2022-11-27T08:46:48.030Z,1010.9
2022-11-27T08:56:54.880Z,1010.9
2022-11-27T09:07:01.509Z,1010.9
2022-11-27T09:17:08.344Z,1010.7
2022-11-27T09:27:14.932Z,1010.5
2022-11-27T09:37:21.800Z,1010.4
2022-11-27T09:47:28.412Z,1010.2
2022-11-27T09:57:35.277Z,1010.1
2022-11-27T10:07:43.187Z,1010.1
2022-11-27T10:17:49.920Z,1010.1
2022-11-27T10:27:56.581Z,1010.1
2022-11-27T10:38:06.824Z,1009.8
2022-11-27T10:48:10.096Z,1009.6
2022-11-27T10:58:16.739Z,1009.6
2022-11-27T11:08:23.567Z,1009.4
2022-11-27T11:18:30.161Z,1009.3
2022-11-27T11:28:39.595Z,1009
2022-11-27T11:38:43.614Z,1008.8
2022-11-27T11:48:57.509Z,1008.6
2022-11-27T11:58:58.434Z,1008.4
2022-11-27T12:09:05.037Z,1008
2022-11-27T12:19:11.865Z,1007.6
2022-11-27T12:29:18.473Z,1007.4
2022-11-27T12:39:25.314Z,1007.2
2022-11-27T12:49:31.940Z,1007
2022-11-27T12:59:38.769Z,1006.8
2022-11-27T13:09:46.610Z,1006.9
2022-11-27T13:19:54.699Z,1006.7
2022-11-27T13:30:01.275Z,1006.6
2022-11-27T13:40:09.352Z,1006.4
2022-11-27T13:50:15.956Z,1006.4
2022-11-27T14:00:22.815Z,1006.5
2022-11-27T14:10:29.406Z,1006.5
2022-11-27T14:20:36.263Z,1006.6
2022-11-27T14:30:42.943Z,1006.1
2022-11-27T14:40:49.742Z,1006.1
2022-11-27T14:50:56.303Z,1006.4
2022-11-27T15:01:03.157Z,1006.5
2022-11-27T15:11:09.789Z,1006.4
2022-11-27T15:21:16.614Z,1006.2
2022-11-27T15:31:23.308Z,1006.1
2022-11-27T15:41:40.837Z,1006
2022-11-27T15:51:36.802Z,1005.9
2022-11-27T16:01:43.471Z,1005.7
2022-11-27T16:11:50.237Z,1005.7
2022-11-27T16:21:56.839Z,1005.4
2022-11-27T16:32:03.803Z,1005.4
2022-11-27T16:42:10.347Z,1005.1
2022-11-27T16:52:22.989Z,1005.1
2022-11-27T17:02:23.995Z,1005
2022-11-27T17:12:30.514Z,1004.8
2022-11-27T17:22:37.366Z,1004.6
2022-11-27T17:32:43.969Z,1004.3
2022-11-27T17:42:56.646Z,1004.1
2022-11-27T17:52:57.555Z,1003.8
2022-11-27T18:03:07.313Z,1003.8
2022-11-27T18:13:12.245Z,1004.1
2022-11-27T18:23:18.818Z,1003.6
2022-11-27T18:33:25.686Z,1003.4
2022-11-27T18:43:32.288Z,1003.1
2022-11-27T18:53:39.108Z,1003.2
2022-11-27T19:03:45.734Z,1003.4
2022-11-27T19:13:52.578Z,1003.6
2022-11-27T19:24:00.419Z,1003.5
2022-11-27T19:34:07.251Z,1003.2
2022-11-27T19:44:13.865Z,1003
2022-11-27T19:54:20.693Z,1003.1
2022-11-27T20:04:27.339Z,1002.9
2022-11-27T20:14:34.150Z,1002.8
2022-11-27T20:24:58.436Z,1002.7
2022-11-27T20:34:47.605Z,1002.5
2022-11-27T20:44:54.558Z,1002.4
2022-11-27T20:55:02.306Z,1002.3
2022-11-27T21:05:08.909Z,1002.3
2022-11-27T21:15:15.760Z,1002.2
2022-11-27T21:25:25.476Z,1002.2
2022-11-27T21:35:32.146Z,1002
2022-11-27T21:45:35.868Z,1001.8
2022-11-27T21:55:42.659Z,1001.4
2022-11-27T22:05:49.242Z,1001.5
2022-11-27T22:15:56.117Z,1001.5
2022-11-27T22:26:03.938Z,1001.8
2022-11-27T22:36:10.786Z,1001.7
2022-11-27T22:46:17.458Z,1001.6
2022-11-27T22:56:30.114Z,1001.6
2022-11-27T23:06:30.960Z,1001.2
2022-11-27T23:16:37.628Z,1001.2
2022-11-27T23:26:44.419Z,1001.1
2022-11-27T23:36:51.009Z,1001
2022-11-27T23:46:57.857Z,1000.8
2022-11-27T23:57:04.452Z,1000.7
